createdAt,value
2023-04-21T00:00:55.087Z,28.90
2023-04-21T00:03:23.983Z,27.97
2023-04-21T00:05:51.452Z,29.60
2023-04-21T00:08:19.021Z,30.00
2023-04-21T00:10:46.875Z,27.47
2023-04-21T00:13:14.329Z,31.40
2023-04-21T00:15:41.338Z,34.53
2023-04-21T00:18:08.037Z,28.83
2023-04-21T00:20:35.457Z,29.70
2023-04-21T00:23:02.242Z,28.40
2023-04-21T00:25:28.754Z,33.67
2023-04-21T00:27:55.302Z,26.73
2023-04-21T00:30:22.092Z,28.00
2023-04-21T00:32:48.707Z,31.87
2023-04-21T00:35:15.330Z,36.10
2023-04-21T00:37:41.820Z,28.70
2023-04-21T00:40:09.290Z,26.70
2023-04-21T00:42:35.850Z,28.73
2023-04-21T00:45:03.906Z,28.70
2023-04-21T00:47:31.050Z,28.33
2023-04-21T00:54:05.462Z,30.70
2023-04-21T00:56:33.550Z,28.43
2023-04-21T00:59:00.920Z,30.20
2023-04-21T01:01:32.012Z,29.73
2023-04-21T01:04:00.027Z,29.23
2023-04-21T01:06:32.340Z,30.73
2023-04-21T01:08:58.850Z,30.03
2023-04-21T01:11:26.378Z,32.00
2023-04-21T01:13:56.727Z,25.50
2023-04-21T01:16:24.233Z,32.13
2023-04-21T01:18:53.320Z,32.47
2023-04-21T01:21:21.613Z,32.00
2023-04-21T01:23:48.186Z,32.17
2023-04-21T01:26:18.357Z,28.80
2023-04-21T01:28:45.016Z,26.10
2023-04-21T01:31:12.050Z,28.80
2023-04-21T01:33:38.673Z,28.20
2023-04-21T01:36:05.601Z,30.90
2023-04-21T01:38:32.114Z,27.57
2023-04-21T01:40:58.783Z,27.13
2023-04-21T01:43:25.796Z,30.83
2023-04-21T01:45:53.366Z,30.40
2023-04-21T01:48:20.088Z,27.37
2023-04-21T01:50:46.774Z,30.00
2023-04-21T01:53:13.571Z,26.97
2023-04-21T01:55:40.243Z,34.60
2023-04-21T01:58:07.700Z,31.80
2023-04-21T02:00:34.296Z,32.30
2023-04-21T02:03:00.995Z,31.00
2023-04-21T02:05:27.755Z,27.83
2023-04-21T02:07:54.684Z,29.97
2023-04-21T02:10:21.390Z,27.30
2023-04-21T02:12:48.077Z,32.80
2023-04-21T02:15:14.717Z,33.53
2023-04-21T02:17:42.898Z,31.20
2023-04-21T02:20:12.023Z,28.90
2023-04-21T02:22:38.898Z,31.03
2023-04-21T02:25:06.162Z,32.70
2023-04-21T02:27:32.726Z,29.67
2023-04-21T02:29:59.675Z,29.50
2023-04-21T02:32:26.519Z,32.67
2023-04-21T02:34:53.336Z,38.10
2023-04-21T02:37:21.141Z,37.47
2023-04-21T02:39:48.121Z,36.43
2023-04-21T02:42:14.708Z,31.80
2023-04-21T02:44:42.762Z,31.17
2023-04-21T02:47:09.486Z,31.77
2023-04-21T02:49:41.004Z,29.63
2023-04-21T02:52:07.920Z,31.70
2023-04-21T02:54:34.501Z,31.17
2023-04-21T02:57:02.033Z,27.53
2023-04-21T02:59:29.084Z,31.43
2023-04-21T03:01:55.849Z,36.87
2023-04-21T03:04:24.572Z,35.80
2023-04-21T03:06:52.378Z,38.07
2023-04-21T03:09:19.235Z,33.00
2023-04-21T03:11:45.966Z,35.73
2023-04-21T03:14:13.001Z,35.17
2023-04-21T03:16:39.683Z,32.70
2023-04-21T03:19:06.515Z,34.23
2023-04-21T03:21:33.130Z,36.57
2023-04-21T03:23:59.673Z,36.30
2023-04-21T03:26:26.378Z,34.13
2023-04-21T03:28:53.189Z,43.50
2023-04-21T03:31:19.849Z,37.80
2023-04-21T03:33:46.410Z,36.27
2023-04-21T03:36:13.069Z,31.77
2023-04-21T03:38:39.608Z,33.40
2023-04-21T03:41:08.831Z,41.33
2023-04-21T03:43:36.239Z,39.87
2023-04-21T03:46:03.372Z,38.70
2023-04-21T03:48:30.048Z,38.90
2023-04-21T03:50:56.668Z,36.97
2023-04-21T03:53:23.370Z,37.43
2023-04-21T03:55:51.100Z,40.47
2023-04-21T03:58:18.664Z,37.67
2023-04-21T04:00:45.330Z,38.97
2023-04-21T04:03:12.194Z,42.87
2023-04-21T04:05:39.071Z,41.20
2023-04-21T04:08:06.665Z,40.60
2023-04-21T04:10:33.181Z,40.90
2023-04-21T04:13:00.113Z,37.03
2023-04-21T04:15:27.313Z,40.43
2023-04-21T04:17:53.986Z,43.23
2023-04-21T04:20:20.649Z,39.60
2023-04-21T04:22:47.500Z,48.23
2023-04-21T04:25:16.933Z,46.80
2023-04-21T04:27:46.532Z,47.27
2023-04-21T04:30:14.020Z,48.63
2023-04-21T04:32:41.481Z,46.90
2023-04-21T04:35:10.164Z,49.90
2023-04-21T04:37:37.490Z,47.27
2023-04-21T04:40:12.320Z,44.47
2023-04-21T04:42:40.139Z,54.30
2023-04-21T04:45:08.766Z,45.00
2023-04-21T04:47:36.000Z,49.87
2023-04-21T04:50:03.494Z,50.43
2023-04-21T04:52:30.357Z,52.27
2023-04-21T04:54:56.929Z,49.93
2023-04-21T04:57:23.580Z,51.77
2023-04-21T04:59:55.397Z,51.73
2023-04-21T05:02:24.476Z,53.73
2023-04-21T05:04:51.903Z,56.80
2023-04-21T05:07:18.813Z,58.40
2023-04-21T05:09:46.118Z,68.70
2023-04-21T05:12:12.880Z,58.17
2023-04-21T05:14:39.719Z,63.30
2023-04-21T05:17:06.427Z,54.90
2023-04-21T05:19:36.288Z,56.33
2023-04-21T05:22:03.059Z,57.87
2023-04-21T05:24:29.615Z,61.07
2023-04-21T05:26:56.393Z,59.53
2023-04-21T05:29:22.963Z,54.73
2023-04-21T05:31:49.601Z,58.90
2023-04-21T05:34:16.420Z,55.03
2023-04-21T05:36:43.219Z,53.13
2023-04-21T05:39:09.900Z,56.40
2023-04-21T05:41:36.658Z,67.70
2023-04-21T05:44:03.225Z,53.10
2023-04-21T05:46:30.350Z,60.63
2023-04-21T05:48:57.162Z,59.90
2023-04-21T05:51:23.781Z,53.70
2023-04-21T05:53:50.511Z,54.80
2023-04-21T05:56:17.336Z,55.90
2023-04-21T05:58:43.851Z,53.53
2023-04-21T06:01:10.724Z,57.17
2023-04-21T06:03:37.380Z,49.03
2023-04-21T06:06:06.041Z,52.10
2023-04-21T06:08:32.939Z,57.80
2023-04-21T06:10:59.554Z,56.80
2023-04-21T06:13:27.553Z,52.43
2023-04-21T06:15:55.062Z,49.80
2023-04-21T06:18:21.698Z,54.80
2023-04-21T06:20:52.214Z,49.33
2023-04-21T06:23:20.649Z,52.37
2023-04-21T06:25:47.672Z,53.07
2023-04-21T06:28:14.594Z,53.37
2023-04-21T06:30:41.155Z,49.47
2023-04-21T06:33:08.188Z,56.93
2023-04-21T06:35:34.756Z,50.03
2023-04-21T06:38:01.523Z,50.50
2023-04-21T06:40:28.245Z,46.73
2023-04-21T06:42:54.757Z,49.87
2023-04-21T06:45:21.443Z,47.80
2023-04-21T06:47:48.067Z,46.90
2023-04-21T06:50:14.579Z,58.67
2023-04-21T06:52:41.371Z,50.27
2023-04-21T06:55:08.368Z,49.53
2023-04-21T06:57:35.036Z,46.30
2023-04-21T07:00:01.778Z,49.13
2023-04-21T07:02:28.606Z,46.70
2023-04-21T07:04:55.638Z,38.13
2023-04-21T07:07:22.247Z,45.10
2023-04-21T07:09:48.977Z,42.73
2023-04-21T07:12:16.012Z,43.37
2023-04-21T07:14:42.821Z,44.17
2023-04-21T07:17:09.862Z,40.33
2023-04-21T07:19:37.130Z,43.33
2023-04-21T07:22:04.131Z,43.47
2023-04-21T07:24:31.088Z,36.83
2023-04-21T07:26:58.078Z,45.70
2023-04-21T07:29:24.711Z,42.60
2023-04-21T07:31:51.828Z,37.73
2023-04-21T07:34:18.398Z,40.10
2023-04-21T07:36:45.562Z,40.17
2023-04-21T07:39:12.374Z,36.70
2023-04-21T07:41:38.952Z,34.60
2023-04-21T07:44:05.965Z,36.10
2023-04-21T07:46:32.652Z,33.30
2023-04-21T07:49:01.397Z,34.10
2023-04-21T07:51:29.666Z,32.30
2023-04-21T07:53:56.294Z,33.60
2023-04-21T07:56:23.035Z,33.80
2023-04-21T07:58:49.800Z,31.10
2023-04-21T08:01:16.856Z,35.77
2023-04-21T08:03:43.813Z,34.07
2023-04-21T08:06:11.017Z,40.33
2023-04-21T08:08:37.837Z,36.53
2023-04-21T08:11:04.553Z,33.10
2023-04-21T08:13:32.298Z,33.57
2023-04-21T08:16:00.227Z,29.07
2023-04-21T08:18:26.896Z,33.17
2023-04-21T08:20:53.643Z,30.43
2023-04-21T08:23:20.419Z,30.40
2023-04-21T08:25:47.152Z,29.40
2023-04-21T08:28:15.570Z,34.97
2023-04-21T08:30:42.743Z,29.70
2023-04-21T08:33:13.574Z,31.67
2023-04-21T08:35:54.836Z,26.63
2023-04-21T08:38:28.314Z,30.57
2023-04-21T08:40:56.233Z,28.43
2023-04-21T08:43:23.050Z,29.40
2023-04-21T08:45:50.381Z,32.47
2023-04-21T08:48:20.068Z,32.47
2023-04-21T08:50:48.708Z,32.50
2023-04-21T08:53:16.210Z,28.10
2023-04-21T08:55:43.353Z,29.20
2023-04-21T08:58:10.154Z,30.40
2023-04-21T09:00:36.893Z,31.50
2023-04-21T09:03:10.688Z,32.10
2023-04-21T09:05:43.322Z,32.10
2023-04-21T09:08:12.701Z,30.10
2023-04-21T09:10:49.349Z,30.03
2023-04-21T09:13:18.106Z,30.07
2023-04-21T09:15:49.860Z,32.90
2023-04-21T09:18:17.462Z,32.90
2023-04-21T09:20:45.389Z,33.23
2023-04-21T09:23:13.037Z,32.30
2023-04-21T09:25:41.228Z,30.80
2023-04-21T09:28:12.866Z,30.37
2023-04-21T09:30:41.127Z,31.83
2023-04-21T09:33:20.095Z,30.63
2023-04-21T09:35:54.790Z,29.00
2023-04-21T09:38:22.305Z,30.67
2023-04-21T09:40:59.049Z,30.83
2023-04-21T09:43:26.149Z,31.43
2023-04-21T09:45:54.120Z,33.70
2023-04-21T09:48:22.654Z,27.83
2023-04-21T09:53:22.019Z,32.27
2023-04-21T09:55:51.707Z,29.50
2023-04-21T09:58:20.649Z,29.70
2023-04-21T10:00:47.550Z,29.40
2023-04-21T10:03:14.591Z,31.20
2023-04-21T10:05:43.025Z,31.17
2023-04-21T10:08:11.661Z,28.20
2023-04-21T10:10:39.005Z,27.50
2023-04-21T10:13:06.299Z,26.97
2023-04-21T10:15:36.012Z,27.60
2023-04-21T10:18:22.105Z,25.87
2023-04-21T10:21:03.998Z,23.83
2023-04-21T10:23:36.612Z,25.93
2023-04-21T10:26:03.540Z,26.33
2023-04-21T10:28:41.044Z,25.37
2023-04-21T10:31:29.530Z,26.90
2023-04-21T10:34:17.314Z,27.83
2023-04-21T10:36:47.111Z,23.00
2023-04-21T10:39:38.616Z,23.70
2023-04-21T10:42:19.816Z,25.57
2023-04-21T10:44:53.726Z,27.50
2023-04-21T10:47:45.428Z,35.83
2023-04-21T10:50:17.905Z,25.63
2023-04-21T10:52:54.146Z,23.97
2023-04-21T10:55:22.071Z,23.83
2023-04-21T10:57:49.515Z,25.70
2023-04-21T11:00:19.188Z,26.90
2023-04-21T11:02:57.192Z,24.63
2023-04-21T11:05:28.584Z,24.53
2023-04-21T11:08:05.983Z,23.80
2023-04-21T11:10:55.333Z,26.50
2023-04-21T11:13:27.491Z,23.73
2023-04-21T11:16:06.396Z,23.07
2023-04-21T11:18:40.106Z,23.90
2023-04-21T11:21:10.360Z,22.97
2023-04-21T11:23:41.389Z,22.50
2023-04-21T11:26:08.232Z,22.67
2023-04-21T11:28:34.880Z,20.90
2023-04-21T11:31:01.493Z,22.03
2023-04-21T11:33:36.806Z,23.47
2023-04-21T11:36:05.792Z,20.63
2023-04-21T11:38:40.698Z,23.23
2023-04-21T11:41:09.989Z,20.73
2023-04-21T11:43:37.509Z,20.97
2023-04-21T11:46:23.880Z,19.70
2023-04-21T11:49:04.842Z,17.37
2023-04-21T11:51:36.234Z,16.67
2023-04-21T11:54:04.939Z,19.93
2023-04-21T11:56:38.441Z,20.20
2023-04-21T11:59:10.019Z,22.97
2023-04-21T12:01:44.179Z,21.53
2023-04-21T12:04:15.838Z,21.47
2023-04-21T12:06:42.640Z,20.53
2023-04-21T12:09:17.313Z,21.77
2023-04-21T12:11:51.127Z,22.80
2023-04-21T12:14:19.653Z,20.87
2023-04-21T12:16:50.421Z,20.90
2023-04-21T12:19:24.305Z,19.77
2023-04-21T12:21:56.177Z,19.77
2023-04-21T12:24:23.954Z,19.23
2023-04-21T12:26:50.619Z,21.63
2023-04-21T12:29:17.689Z,21.80
2023-04-21T12:31:44.281Z,20.07
2023-04-21T12:34:11.337Z,20.37
2023-04-21T12:36:38.765Z,19.57
2023-04-21T12:39:06.145Z,20.63
2023-04-21T12:41:34.866Z,19.90
2023-04-21T12:44:01.567Z,18.93
2023-04-21T12:46:28.518Z,20.67
2023-04-21T12:48:56.127Z,18.60
2023-04-21T12:51:22.885Z,17.90
2023-04-21T12:53:49.897Z,17.10
2023-04-21T12:56:16.828Z,17.30
2023-04-21T12:58:43.558Z,19.40
2023-04-21T13:01:12.140Z,17.20
2023-04-21T13:03:39.207Z,18.77
2023-04-21T13:06:06.351Z,17.90
2023-04-21T13:08:33.010Z,18.23
2023-04-21T13:10:59.678Z,18.57
2023-04-21T13:13:26.783Z,18.60
2023-04-21T13:15:53.772Z,19.57
2023-04-21T13:18:20.536Z,20.50
2023-04-21T13:20:47.064Z,19.60
2023-04-21T13:23:14.766Z,19.80
2023-04-21T13:25:41.781Z,21.07
2023-04-21T13:28:08.462Z,20.57
2023-04-21T13:30:36.264Z,21.67
2023-04-21T13:33:03.993Z,21.93
2023-04-21T13:35:30.774Z,22.00
2023-04-21T13:37:57.352Z,22.00
2023-04-21T13:40:23.974Z,23.17
2023-04-21T13:42:50.732Z,21.27
2023-04-21T13:45:18.741Z,19.80
2023-04-21T13:47:45.369Z,22.60
2023-04-21T13:50:13.112Z,23.17
2023-04-21T13:52:39.731Z,22.20
2023-04-21T13:55:06.822Z,20.83
2023-04-21T13:57:33.416Z,23.03
2023-04-21T14:00:00.066Z,21.53
2023-04-21T14:02:26.939Z,24.90
2023-04-21T14:04:54.349Z,21.93
2023-04-21T14:07:22.625Z,22.30
2023-04-21T14:09:51.719Z,21.67
2023-04-21T14:12:18.967Z,23.77
2023-04-21T14:14:45.589Z,22.53
2023-04-21T14:17:12.747Z,20.07
2023-04-21T14:19:39.491Z,22.83
2023-04-21T14:22:06.389Z,21.90
2023-04-21T14:24:32.997Z,22.17
2023-04-21T14:26:59.644Z,24.37
2023-04-21T14:29:26.177Z,22.63
2023-04-21T14:31:57.634Z,24.60
2023-04-21T14:34:26.040Z,23.67
2023-04-21T14:36:53.548Z,22.33
2023-04-21T14:39:20.190Z,21.73
2023-04-21T14:41:46.692Z,20.60
2023-04-21T14:44:13.237Z,20.40
2023-04-21T14:46:39.962Z,22.23
2023-04-21T14:49:06.988Z,23.23
2023-04-21T14:51:33.699Z,23.33
2023-04-21T14:54:00.375Z,23.43
2023-04-21T14:56:27.071Z,21.80
2023-04-21T14:58:53.641Z,21.73
2023-04-21T15:01:20.269Z,23.80
2023-04-21T15:03:47.189Z,22.77
2023-04-21T15:06:16.105Z,20.63
2023-04-21T15:08:42.840Z,22.00
2023-04-21T15:11:09.887Z,22.40
2023-04-21T15:13:36.482Z,21.63
2023-04-21T15:16:03.405Z,22.27
2023-04-21T15:18:29.874Z,19.50
2023-04-21T15:20:56.343Z,19.73
2023-04-21T15:23:22.965Z,19.93
2023-04-21T15:25:49.466Z,18.50
2023-04-21T15:28:15.976Z,18.60
2023-04-21T15:30:42.517Z,19.13
2023-04-21T15:33:11.331Z,19.63
2023-04-21T15:35:37.989Z,18.47
2023-04-21T15:38:06.328Z,19.70
2023-04-21T15:40:32.939Z,16.87
2023-04-21T15:42:59.468Z,19.87
2023-04-21T15:45:26.134Z,18.00
2023-04-21T15:47:53.791Z,18.57
2023-04-21T15:50:20.664Z,17.80
2023-04-21T15:52:47.210Z,16.70
2023-04-21T15:55:13.889Z,16.43
2023-04-21T15:57:40.399Z,15.90
2023-04-21T16:00:07.970Z,16.13
2023-04-21T16:02:34.752Z,16.40
2023-04-21T16:05:02.390Z,14.10
2023-04-21T16:07:29.720Z,15.50
2023-04-21T16:09:56.331Z,18.33
2023-04-21T16:12:24.319Z,14.93
2023-04-21T16:14:57.640Z,14.53
2023-04-21T16:17:31.998Z,15.47
2023-04-21T16:19:58.690Z,14.50
2023-04-21T16:22:25.640Z,13.27
2023-04-21T16:24:53.180Z,12.37
2023-04-21T16:27:19.929Z,12.83
2023-04-21T16:29:46.715Z,12.60
2023-04-21T16:32:13.246Z,12.27
2023-04-21T16:34:40.801Z,12.80
2023-04-21T16:37:08.165Z,11.83
2023-04-21T16:39:34.653Z,11.53
2023-04-21T16:42:02.066Z,13.73
2023-04-21T16:44:29.169Z,11.03
2023-04-21T16:46:55.764Z,11.70
2023-04-21T16:49:22.840Z,15.17
2023-04-21T16:51:49.411Z,13.43
2023-04-21T16:54:15.899Z,14.10
2023-04-21T16:56:42.425Z,14.20
2023-04-21T16:59:09.104Z,14.80
2023-04-21T17:01:35.851Z,16.23
2023-04-21T17:04:02.831Z,18.50
2023-04-21T17:06:30.033Z,17.10
2023-04-21T17:08:59.807Z,19.20
2023-04-21T17:11:27.654Z,22.60
2023-04-21T17:13:54.789Z,20.70
2023-04-21T17:16:21.626Z,16.97
2023-04-21T17:18:48.213Z,13.50
2023-04-21T17:21:14.790Z,11.20
2023-04-21T17:23:41.426Z,11.83
2023-04-21T17:26:08.799Z,13.33
2023-04-21T17:28:38.188Z,19.27
2023-04-21T17:31:15.033Z,15.20
2023-04-21T17:33:42.472Z,16.30
2023-04-21T17:36:09.410Z,17.57
2023-04-21T17:38:36.193Z,17.90
2023-04-21T17:41:04.513Z,20.53
2023-04-21T17:43:31.053Z,18.37
2023-04-21T17:45:57.643Z,20.80
2023-04-21T17:48:24.158Z,19.60
2023-04-21T17:50:51.397Z,21.27
2023-04-21T17:53:19.032Z,19.97
2023-04-21T17:55:45.629Z,23.50
2023-04-21T17:58:12.586Z,20.77
2023-04-21T18:00:40.519Z,20.93
2023-04-21T18:03:07.290Z,24.13
2023-04-21T18:05:34.165Z,22.00
2023-04-21T18:08:00.828Z,23.50
2023-04-21T18:10:29.582Z,21.50
2023-04-21T18:12:56.381Z,24.30
2023-04-21T18:15:22.928Z,21.93
2023-04-21T18:17:49.569Z,22.77
2023-04-21T18:20:16.260Z,23.73
2023-04-21T18:22:43.755Z,22.07
2023-04-21T18:25:11.765Z,26.07
2023-04-21T18:27:39.327Z,22.83
2023-04-21T18:30:06.691Z,22.70
2023-04-21T18:32:36.558Z,24.57
2023-04-21T18:35:04.623Z,24.10
2023-04-21T18:37:31.335Z,26.40
2023-04-21T18:39:57.811Z,34.03
2023-04-21T18:42:25.385Z,37.67
2023-04-21T18:44:52.758Z,39.37
2023-04-21T18:47:20.861Z,37.83
2023-04-21T18:49:47.520Z,37.13
2023-04-21T18:52:14.344Z,33.33
2023-04-21T18:54:41.030Z,36.93
2023-04-21T18:57:08.341Z,35.10
2023-04-21T18:59:35.492Z,33.63
2023-04-21T19:02:03.963Z,35.07
2023-04-21T19:04:31.289Z,30.70
2023-04-21T19:06:58.663Z,30.90
2023-04-21T19:09:27.228Z,30.30
2023-04-21T19:11:53.768Z,28.97
2023-04-21T19:14:20.358Z,29.63
2023-04-21T19:16:48.794Z,30.70
2023-04-21T19:19:15.757Z,29.43
2023-04-21T19:21:42.258Z,31.73
2023-04-21T19:24:08.876Z,30.63
2023-04-21T19:26:35.927Z,32.03
2023-04-21T19:29:02.446Z,34.37
2023-04-21T19:31:29.002Z,31.20
2023-04-21T19:33:55.645Z,31.17
2023-04-21T19:36:22.378Z,31.40
2023-04-21T19:38:49.790Z,30.73
2023-04-21T19:41:16.354Z,30.93
2023-04-21T19:43:43.034Z,32.13
2023-04-21T19:46:10.271Z,31.37
2023-04-21T19:48:39.959Z,33.90
2023-04-21T19:51:08.628Z,30.40
2023-04-21T19:53:35.188Z,29.83
2023-04-21T19:56:01.824Z,29.27
2023-04-21T19:58:39.544Z,30.17
2023-04-21T20:01:07.815Z,34.57
2023-04-21T20:03:34.858Z,32.90
2023-04-21T20:06:02.214Z,31.33
2023-04-21T20:08:29.605Z,32.50
2023-04-21T20:10:56.344Z,31.73
2023-04-21T20:13:24.468Z,28.93
2023-04-21T20:15:51.524Z,32.87
2023-04-21T20:18:18.383Z,31.10
2023-04-21T20:20:46.466Z,27.87
2023-04-21T20:23:13.427Z,28.77
2023-04-21T20:25:40.156Z,27.27
2023-04-21T20:28:06.843Z,28.30
2023-04-21T20:30:33.575Z,27.10
2023-04-21T20:33:00.540Z,27.20
2023-04-21T20:35:27.164Z,30.00
2023-04-21T20:37:54.087Z,25.37
2023-04-21T20:40:21.612Z,20.23
2023-04-21T20:42:48.830Z,15.80
2023-04-21T20:45:17.516Z,12.40
2023-04-21T20:47:44.258Z,10.10
2023-04-21T20:50:11.043Z,10.30
2023-04-21T20:52:37.814Z,8.00
2023-04-21T20:55:04.812Z,7.70
2023-04-21T20:57:31.490Z,8.10
2023-04-21T20:59:58.115Z,8.93
2023-04-21T21:02:24.958Z,7.80
2023-04-21T21:04:51.633Z,9.10
2023-04-21T21:07:18.262Z,8.40
2023-04-21T21:09:45.093Z,12.73
2023-04-21T21:12:11.795Z,9.10
2023-04-21T21:14:38.974Z,9.67
2023-04-21T21:17:05.765Z,9.60
2023-04-21T21:19:32.475Z,10.30
2023-04-21T21:21:59.076Z,9.90
2023-04-21T21:24:26.826Z,10.33
2023-04-21T21:26:53.384Z,10.67
2023-04-21T21:29:20.216Z,12.77
2023-04-21T21:31:46.927Z,12.67
2023-04-21T21:34:13.664Z,12.53
2023-04-21T21:36:40.431Z,11.47
2023-04-21T21:39:09.612Z,13.30
2023-04-21T21:41:38.224Z,17.03
2023-04-21T21:44:04.844Z,13.50
2023-04-21T21:46:31.557Z,12.50
2023-04-21T21:48:58.172Z,11.23
2023-04-21T21:51:24.886Z,12.20
2023-04-21T21:53:51.669Z,11.40
2023-04-21T21:56:18.209Z,12.03
2023-04-21T21:58:44.730Z,11.20
2023-04-21T22:01:11.595Z,13.17
2023-04-21T22:03:38.541Z,12.77
2023-04-21T22:06:06.203Z,10.87
2023-04-21T22:08:32.965Z,11.27
2023-04-21T22:10:59.947Z,12.37
2023-04-21T22:13:26.852Z,12.80
2023-04-21T22:15:53.659Z,14.37
2023-04-21T22:18:21.062Z,12.20
2023-04-21T22:20:47.754Z,12.57
2023-04-21T22:23:14.657Z,11.90
2023-04-21T22:25:41.245Z,12.47
2023-04-21T22:28:07.861Z,11.73
2023-04-21T22:30:34.459Z,13.73
2023-04-21T22:33:01.284Z,13.20
2023-04-21T22:35:27.916Z,14.00
2023-04-21T22:37:54.477Z,14.60
2023-04-21T22:40:21.268Z,12.80
2023-04-21T22:42:47.966Z,13.70
2023-04-21T22:45:14.708Z,12.13
2023-04-21T22:47:41.413Z,16.10
2023-04-21T22:50:09.379Z,12.13
2023-04-21T22:52:36.428Z,14.03
2023-04-21T22:55:05.136Z,13.33
2023-04-21T22:57:32.556Z,13.80
2023-04-21T22:59:59.240Z,16.90
2023-04-21T23:02:26.592Z,16.50
2023-04-21T23:04:54.293Z,17.90
2023-04-21T23:07:21.316Z,15.03
2023-04-21T23:09:48.335Z,16.60
2023-04-21T23:12:14.817Z,15.00
2023-04-21T23:14:41.312Z,14.53
2023-04-21T23:17:07.856Z,16.30
2023-04-21T23:19:34.498Z,15.60
2023-04-21T23:22:01.092Z,15.77
2023-04-21T23:24:28.071Z,18.33
2023-04-21T23:26:54.701Z,15.73
2023-04-21T23:29:21.558Z,16.90
2023-04-21T23:31:48.156Z,15.10
2023-04-21T23:34:15.412Z,18.80
2023-04-21T23:36:42.138Z,15.73
2023-04-21T23:39:09.898Z,15.83
2023-04-21T23:41:36.562Z,16.73
2023-04-21T23:44:03.083Z,15.23
2023-04-21T23:46:29.707Z,15.43
2023-04-21T23:48:56.347Z,15.50
2023-04-21T23:51:23.123Z,15.70
2023-04-21T23:53:49.844Z,14.87
2023-04-21T23:56:17.105Z,14.10
2023-04-21T23:58:43.743Z,17.13
